createdAt,value
2022-11-30T00:04:22.312Z,101281.03
2022-11-30T00:06:57.554Z,101291.56
2022-11-30T00:09:46.600Z,101293.25
2022-11-30T00:12:33.634Z,101284.53
2022-11-30T00:15:28.117Z,101282.75
2022-11-30T00:18:15.877Z,101281.88
2022-11-30T00:21:07.322Z,101286.28
2022-11-30T00:23:50.591Z,101288.91
2022-11-30T00:26:37.612Z,101295.91
2022-11-30T00:29:21.755Z,101296.78
2022-11-30T00:32:15.116Z,101288.03
2022-11-30T00:34:59.387Z,101288.06
2022-11-30T00:37:44.230Z,101289.78
2022-11-30T00:40:37.882Z,101294.19
2022-11-30T00:43:46.724Z,101288.91
2022-11-30T00:46:40.011Z,101289.81
2022-11-30T00:49:38.735Z,101289.78
2022-11-30T00:52:25.943Z,101288.94
2022-11-30T00:55:08.297Z,101296.81
2022-11-30T00:57:48.291Z,101297.72
2022-11-30T01:00:33.603Z,101292.44
2022-11-30T01:03:09.392Z,101301.22
2022-11-30T01:05:52.323Z,101291.59
2022-11-30T01:08:57.313Z,101293.34
2022-11-30T01:12:04.563Z,101289.84
2022-11-30T01:18:11.506Z,101289.84
2022-11-30T01:21:03.616Z,101289.88
2022-11-30T01:23:58.068Z,101296.91
2022-11-30T01:26:56.158Z,101299.53
2022-11-30T01:29:45.063Z,101303.03
2022-11-30T01:32:37.712Z,101298.66
2022-11-30T01:35:35.208Z,101303.06
2022-11-30T01:38:11.028Z,101300.41
2022-11-30T01:40:51.975Z,101305.69
2022-11-30T01:43:44.879Z,101308.31
2022-11-30T01:46:35.927Z,101317.09
2022-11-30T01:49:19.773Z,101313.59
2022-11-30T01:52:00.857Z,101312.69
2022-11-30T01:54:39.913Z,101320.56
2022-11-30T01:57:20.111Z,101316.16
2022-11-30T01:59:56.278Z,101315.25
2022-11-30T02:02:39.001Z,101316.13
2022-11-30T02:05:13.991Z,101308.22
2022-11-30T02:07:49.710Z,101311.72
2022-11-30T02:10:26.691Z,101312.63
2022-11-30T02:13:38.706Z,101324.06
2022-11-30T02:16:23.131Z,101323.19
2022-11-30T02:19:12.561Z,101319.66
2022-11-30T02:21:53.382Z,101323.19
2022-11-30T02:24:54.101Z,101310.91
2022-11-30T02:27:44.045Z,101320.56
2022-11-30T02:30:26.003Z,101323.19
2022-11-30T02:33:07.548Z,101323.19
2022-11-30T02:35:49.112Z,101322.31
2022-11-30T02:38:27.890Z,101326.72
2022-11-30T02:41:04.408Z,101322.31
2022-11-30T02:43:42.128Z,101319.69
2022-11-30T02:46:24.020Z,101324.97
2022-11-30T02:49:05.309Z,101319.69
2022-11-30T02:51:41.480Z,101319.69
2022-11-30T02:54:15.050Z,101325.00
2022-11-30T02:56:51.198Z,101317.09
2022-11-30T02:59:24.918Z,101320.59
2022-11-30T03:02:02.287Z,101325.00
2022-11-30T03:04:38.786Z,101318.88
2022-11-30T03:07:12.291Z,101317.09
2022-11-30T03:09:45.778Z,101331.16
2022-11-30T03:12:20.948Z,101325.03
2022-11-30T03:14:54.925Z,101331.19
2022-11-30T03:17:29.559Z,101323.34
2022-11-30T03:20:03.203Z,101335.63
2022-11-30T03:22:36.723Z,101332.97
2022-11-30T03:25:10.785Z,101328.56
2022-11-30T03:27:44.284Z,101344.41
2022-11-30T03:30:20.740Z,101338.28
2022-11-30T03:32:55.700Z,101337.38
2022-11-30T03:35:29.188Z,101342.66
2022-11-30T03:38:02.675Z,101343.53
2022-11-30T03:40:37.969Z,101351.44
2022-11-30T03:43:11.432Z,101354.94
2022-11-30T03:45:46.743Z,101361.09
2022-11-30T03:48:21.831Z,101355.81
2022-11-30T03:50:55.482Z,101356.69
2022-11-30T03:53:29.365Z,101355.81
2022-11-30T03:56:05.173Z,101358.44
2022-11-30T03:58:39.236Z,101353.16
2022-11-30T04:01:14.848Z,101362.78
2022-11-30T04:03:50.244Z,101357.50
2022-11-30T04:06:23.860Z,101361.06
2022-11-30T04:09:00.112Z,101355.81
2022-11-30T04:11:33.666Z,101357.53
2022-11-30T04:14:07.244Z,101366.34
2022-11-30T04:16:40.862Z,101366.31
2022-11-30T04:19:15.688Z,101361.06
2022-11-30T04:21:49.486Z,101366.31
2022-11-30T04:24:23.015Z,101363.69
2022-11-30T04:26:56.458Z,101367.19
2022-11-30T04:29:30.008Z,101368.03
2022-11-30T04:32:03.459Z,101367.19
2022-11-30T04:34:38.415Z,101364.53
2022-11-30T04:37:12.118Z,101368.03
2022-11-30T04:39:45.551Z,101365.38
2022-11-30T04:42:19.207Z,101369.78
2022-11-30T04:44:52.684Z,101367.13
2022-11-30T04:47:26.253Z,101365.41
2022-11-30T04:50:01.146Z,101370.66
2022-11-30T04:52:34.965Z,101369.78
2022-11-30T04:55:09.164Z,101368.00
2022-11-30T04:57:42.660Z,101375.91
2022-11-30T05:00:18.182Z,101375.91
2022-11-30T05:02:53.171Z,101374.13
2022-11-30T05:05:28.313Z,101376.72
2022-11-30T05:08:01.867Z,101388.13
2022-11-30T05:10:35.447Z,101380.22
2022-11-30T05:13:08.998Z,101389.00
2022-11-30T05:15:42.463Z,101387.22
2022-11-30T05:18:16.942Z,101391.63
2022-11-30T05:20:52.993Z,101387.19
2022-11-30T05:23:26.517Z,101385.41
2022-11-30T05:26:02.462Z,101385.41
2022-11-30T05:28:35.979Z,101386.28
2022-11-30T05:31:09.490Z,101390.69
2022-11-30T05:33:43.091Z,101390.69
2022-11-30T05:36:17.996Z,101396.84
2022-11-30T05:38:51.490Z,101397.72
2022-11-30T05:41:25.165Z,101402.13
2022-11-30T05:43:58.581Z,101400.38
2022-11-30T05:46:32.117Z,101407.47
2022-11-30T05:49:05.946Z,101405.72
2022-11-30T05:51:41.708Z,101400.47
2022-11-30T05:54:15.155Z,101405.78
2022-11-30T05:56:53.124Z,101404.03
2022-11-30T05:59:28.256Z,101404.88
2022-11-30T06:02:01.960Z,101396.09
2022-11-30T06:04:36.090Z,101395.19
2022-11-30T06:07:12.189Z,101397.81
2022-11-30T06:09:45.686Z,101397.78
2022-11-30T06:12:19.166Z,101406.56
2022-11-30T06:14:52.715Z,101411.78
2022-11-30T06:17:26.190Z,101410.03
2022-11-30T06:19:59.718Z,101409.13
2022-11-30T06:22:34.659Z,101410.88
2022-11-30T06:25:08.822Z,101410.88
2022-11-30T06:27:43.794Z,101413.53
2022-11-30T06:30:17.504Z,101413.53
2022-11-30T06:32:54.753Z,101410.91
2022-11-30T06:35:28.189Z,101410.91
2022-11-30T06:38:03.168Z,101412.69
2022-11-30T06:40:36.807Z,101418.84
2022-11-30T06:43:10.459Z,101422.34
2022-11-30T06:45:45.188Z,101424.13
2022-11-30T06:48:18.740Z,101420.63
2022-11-30T06:50:52.258Z,101433.78
2022-11-30T06:53:27.521Z,101429.41
2022-11-30T06:56:05.200Z,101439.94
2022-11-30T06:58:42.605Z,101444.34
2022-11-30T07:01:16.714Z,101434.69
2022-11-30T07:03:50.710Z,101438.16
2022-11-30T07:06:24.353Z,101442.59
2022-11-30T07:08:59.319Z,101439.97
2022-11-30T07:11:33.512Z,101448.75
2022-11-30T07:14:07.109Z,101444.38
2022-11-30T07:16:40.972Z,101440.84
2022-11-30T07:19:42.819Z,101445.38
2022-11-30T07:22:42.265Z,101455.91
2022-11-30T07:25:38.157Z,101450.63
2022-11-30T07:28:11.636Z,101445.34
2022-11-30T07:30:45.072Z,101447.09
2022-11-30T07:33:18.494Z,101450.66
2022-11-30T07:35:53.908Z,101447.09
2022-11-30T07:38:27.418Z,101451.53
2022-11-30T07:41:02.299Z,101452.41
2022-11-30T07:43:36.044Z,101455.94
2022-11-30T07:46:11.127Z,101456.88
2022-11-30T07:48:46.141Z,101462.19
2022-11-30T07:51:20.885Z,101456.94
2022-11-30T07:53:56.769Z,101455.22
2022-11-30T07:56:33.559Z,101462.28
2022-11-30T07:59:06.976Z,101457.94
2022-11-30T08:01:40.479Z,101455.31
2022-11-30T08:04:14.667Z,101455.28
2022-11-30T08:06:48.102Z,101455.28
2022-11-30T08:09:21.556Z,101456.22
2022-11-30T08:11:56.437Z,101457.97
2022-11-30T08:14:29.853Z,101449.22
2022-11-30T08:17:05.755Z,101451.88
2022-11-30T08:19:44.282Z,101465.94
2022-11-30T08:22:19.462Z,101458.94
2022-11-30T08:24:52.861Z,101458.94
2022-11-30T08:27:33.705Z,101463.34
2022-11-30T08:30:11.203Z,101456.31
2022-11-30T08:32:44.785Z,101457.22
2022-11-30T08:35:18.195Z,101464.25
2022-11-30T08:38:08.725Z,101464.25
2022-11-30T08:40:42.183Z,101462.53
2022-11-30T08:43:17.007Z,101452.88
2022-11-30T08:45:54.397Z,101459.91
2022-11-30T08:48:30.531Z,101468.75
2022-11-30T08:51:04.518Z,101455.59
2022-11-30T08:53:38.042Z,101462.66
2022-11-30T08:56:18.404Z,101452.06
2022-11-30T08:59:02.000Z,101464.38
2022-11-30T09:01:38.245Z,101460.84
2022-11-30T09:04:11.691Z,101457.34
2022-11-30T09:06:45.103Z,101452.09
2022-11-30T09:09:21.168Z,101452.13
2022-11-30T09:11:54.594Z,101460.06
2022-11-30T09:14:29.568Z,101463.59
2022-11-30T09:17:05.404Z,101461.84
2022-11-30T09:19:39.018Z,101458.34
2022-11-30T09:22:12.585Z,101459.22
2022-11-30T09:24:46.336Z,101468.03
2022-11-30T09:27:22.102Z,101462.81
2022-11-30T09:29:59.355Z,101473.31
2022-11-30T09:32:34.927Z,101463.69
2022-11-30T09:35:12.815Z,101457.50
2022-11-30T09:37:46.670Z,101451.34
2022-11-30T09:40:37.944Z,101454.03
2022-11-30T09:43:26.248Z,101454.88
2022-11-30T09:46:06.380Z,101461.94
2022-11-30T09:49:03.430Z,101460.16
2022-11-30T09:51:44.796Z,101458.41
2022-11-30T09:54:22.664Z,101456.63
2022-11-30T09:56:56.310Z,101452.22
2022-11-30T09:59:35.056Z,101454.00
2022-11-30T10:02:19.221Z,101459.28
2022-11-30T10:04:52.861Z,101468.97
2022-11-30T10:07:56.597Z,101460.13
2022-11-30T10:10:38.874Z,101457.47
2022-11-30T10:13:30.644Z,101461.03
2022-11-30T10:16:15.745Z,101460.13
2022-11-30T10:19:00.531Z,101461.03
2022-11-30T10:21:49.088Z,101468.94
2022-11-30T10:24:41.357Z,101467.19
2022-11-30T10:27:19.531Z,101458.38
2022-11-30T10:29:53.257Z,101455.75
2022-11-30T10:32:31.328Z,101458.38
2022-11-30T10:35:23.176Z,101455.75
2022-11-30T10:37:59.358Z,101453.13
2022-11-30T10:40:39.671Z,101454.00
2022-11-30T10:43:20.010Z,101455.75
2022-11-30T10:45:54.100Z,101459.25
2022-11-30T10:48:30.189Z,101462.81
2022-11-30T10:51:05.884Z,101465.44
2022-11-30T10:53:39.739Z,101464.56
2022-11-30T10:56:15.306Z,101457.50
2022-11-30T10:58:56.417Z,101457.53
2022-11-30T11:01:35.307Z,101459.31
2022-11-30T11:04:16.816Z,101458.44
2022-11-30T11:06:55.748Z,101460.25
2022-11-30T11:09:37.881Z,101454.94
2022-11-30T11:12:18.922Z,101447.00
2022-11-30T11:15:10.066Z,101449.66
2022-11-30T11:17:43.658Z,101443.50
2022-11-30T11:20:35.620Z,101445.25
2022-11-30T11:23:23.246Z,101446.13
2022-11-30T11:25:58.660Z,101447.00
2022-11-30T11:28:33.383Z,101448.78
2022-11-30T11:31:19.725Z,101449.66
2022-11-30T11:33:55.594Z,101446.13
2022-11-30T11:36:33.715Z,101442.59
2022-11-30T11:39:27.148Z,101446.13
2022-11-30T11:42:01.775Z,101449.66
2022-11-30T11:44:35.679Z,101448.75
2022-11-30T11:47:22.798Z,101452.28
2022-11-30T11:50:08.307Z,101450.53
2022-11-30T11:52:43.658Z,101451.41
2022-11-30T11:55:21.296Z,101447.88
2022-11-30T11:58:00.799Z,101442.56
2022-11-30T12:00:37.571Z,101442.56
2022-11-30T12:03:20.237Z,101444.34
2022-11-30T12:06:04.849Z,101448.75
2022-11-30T12:08:46.563Z,101444.34
2022-11-30T12:11:26.133Z,101439.06
2022-11-30T12:13:59.739Z,101438.16
2022-11-30T12:16:42.133Z,101441.69
2022-11-30T12:19:21.678Z,101439.94
2022-11-30T12:22:04.726Z,101445.22
2022-11-30T12:25:04.251Z,101442.56
2022-11-30T12:27:53.620Z,101451.38
2022-11-30T12:30:38.750Z,101452.25
2022-11-30T12:33:17.055Z,101450.47
2022-11-30T12:36:04.134Z,101448.72
2022-11-30T12:38:44.710Z,101455.78
2022-11-30T12:41:39.946Z,101453.13
2022-11-30T12:44:38.527Z,101465.41
2022-11-30T12:47:30.467Z,101455.75
2022-11-30T12:50:35.352Z,101466.31
2022-11-30T12:53:14.291Z,101461.91
2022-11-30T12:56:01.535Z,101468.00
2022-11-30T12:58:46.394Z,101473.31
2022-11-30T13:01:41.637Z,101475.03
2022-11-30T13:04:20.686Z,101470.66
2022-11-30T13:06:59.772Z,101474.16
2022-11-30T13:09:46.675Z,101474.13
2022-11-30T13:12:36.377Z,101475.91
2022-11-30T13:15:17.645Z,101466.22
2022-11-30T13:18:03.079Z,101471.50
2022-11-30T13:20:44.343Z,101472.38
2022-11-30T13:23:31.679Z,101475.91
2022-11-30T13:26:22.262Z,101472.38
2022-11-30T13:29:19.626Z,101467.09
2022-11-30T13:32:05.583Z,101464.44
2022-11-30T13:34:40.414Z,101460.94
2022-11-30T13:37:23.049Z,101464.44
2022-11-30T13:40:01.045Z,101467.06
2022-11-30T13:42:37.889Z,101459.19
2022-11-30T13:45:27.110Z,101461.81
2022-11-30T13:48:02.227Z,101463.56
2022-11-30T13:50:39.977Z,101467.97
2022-11-30T13:53:34.458Z,101470.63
2022-11-30T13:56:23.767Z,101472.38
2022-11-30T13:59:41.019Z,101471.53
2022-11-30T14:02:58.310Z,101468.88
2022-11-30T14:05:44.424Z,101478.56
2022-11-30T14:08:34.730Z,101484.69
2022-11-30T14:11:39.615Z,101479.41
2022-11-30T14:14:48.955Z,101483.78
2022-11-30T14:17:29.055Z,101485.53
2022-11-30T14:20:16.092Z,101483.78
2022-11-30T14:22:52.532Z,101490.81
2022-11-30T14:25:33.686Z,101484.59
2022-11-30T14:28:11.860Z,101480.22
2022-11-30T14:30:45.722Z,101476.69
2022-11-30T14:33:26.647Z,101474.94
2022-11-30T14:36:02.035Z,101470.50
2022-11-30T14:38:43.511Z,101474.88
2022-11-30T14:41:26.135Z,101481.94
2022-11-30T14:44:05.584Z,101479.31
2022-11-30T14:46:39.349Z,101479.31
2022-11-30T14:49:17.683Z,101493.38
2022-11-30T14:51:54.000Z,101489.84
2022-11-30T14:54:52.243Z,101486.31
2022-11-30T14:57:33.549Z,101488.94
2022-11-30T15:00:08.607Z,101490.72
2022-11-30T15:02:45.845Z,101486.28
2022-11-30T15:05:24.136Z,101487.19
2022-11-30T15:07:58.381Z,101484.56
2022-11-30T15:10:36.185Z,101482.81
2022-11-30T15:13:17.259Z,101479.31
2022-11-30T15:15:55.394Z,101482.84
2022-11-30T15:18:28.859Z,101488.09
2022-11-30T15:21:09.181Z,101486.34
2022-11-30T15:23:45.579Z,101486.34
2022-11-30T15:26:35.712Z,101484.59
2022-11-30T15:29:17.543Z,101487.25
2022-11-30T15:31:53.228Z,101490.78
2022-11-30T15:34:40.256Z,101492.53
2022-11-30T15:37:16.765Z,101490.78
2022-11-30T15:39:53.054Z,101489.88
2022-11-30T15:42:39.905Z,101489.03
2022-11-30T15:45:17.693Z,101494.31
2022-11-30T15:47:51.546Z,101490.78
2022-11-30T15:50:38.440Z,101486.38
2022-11-30T15:53:33.737Z,101482.88
2022-11-30T15:56:10.432Z,101489.00
2022-11-30T15:59:03.096Z,101495.16
2022-11-30T16:02:02.451Z,101488.13
2022-11-30T16:05:14.850Z,101483.72
2022-11-30T16:07:52.007Z,101487.25
2022-11-30T16:10:27.714Z,101487.22
2022-11-30T16:13:01.137Z,101483.69
2022-11-30T16:15:37.875Z,101491.59
2022-11-30T16:18:17.624Z,101492.50
2022-11-30T16:20:53.683Z,101492.50
2022-11-30T16:23:28.291Z,101489.84
2022-11-30T16:26:01.823Z,101496.00
2022-11-30T16:28:35.391Z,101496.00
2022-11-30T16:31:19.033Z,101491.59
2022-11-30T16:33:52.643Z,101493.38
2022-11-30T16:36:26.159Z,101496.03
2022-11-30T16:38:59.515Z,101504.81
2022-11-30T16:41:33.111Z,101496.91
2022-11-30T16:44:16.492Z,101496.91
2022-11-30T16:46:54.115Z,101498.66
2022-11-30T16:49:35.075Z,101500.41
2022-11-30T16:52:11.234Z,101506.56
2022-11-30T16:54:53.511Z,101514.47
2022-11-30T16:57:27.050Z,101517.06
2022-11-30T17:00:00.602Z,101522.31
2022-11-30T17:02:37.473Z,101524.94
2022-11-30T17:05:18.969Z,101521.44
2022-11-30T17:07:52.635Z,101523.16
2022-11-30T17:10:26.280Z,101531.09
2022-11-30T17:13:01.852Z,101535.50
2022-11-30T17:15:35.575Z,101528.47
2022-11-30T17:18:10.735Z,101527.53
2022-11-30T17:20:44.496Z,101540.72
2022-11-30T17:23:18.009Z,101532.81
2022-11-30T17:25:52.081Z,101528.44
2022-11-30T17:28:25.675Z,101530.19
2022-11-30T17:30:59.581Z,101528.44
2022-11-30T17:33:36.811Z,101526.69
2022-11-30T17:36:13.970Z,101532.00
2022-11-30T17:38:47.652Z,101534.66
2022-11-30T17:41:25.855Z,101525.03
2022-11-30T17:44:03.097Z,101534.72
2022-11-30T17:46:45.318Z,101528.53
2022-11-30T17:49:22.939Z,101527.69
2022-11-30T17:51:57.642Z,101537.34
2022-11-30T17:54:33.632Z,101528.56
2022-11-30T17:57:07.248Z,101530.31
2022-11-30T17:59:43.131Z,101532.06
2022-11-30T18:02:16.759Z,101528.56
2022-11-30T18:04:52.819Z,101531.22
2022-11-30T18:07:29.108Z,101532.06
2022-11-30T18:10:02.826Z,101546.19
2022-11-30T18:12:36.464Z,101540.03
2022-11-30T18:15:10.807Z,101535.66
2022-11-30T18:17:44.360Z,101547.09
2022-11-30T18:20:20.109Z,101547.97
2022-11-30T18:22:53.600Z,101544.50
2022-11-30T18:25:27.123Z,101548.88
2022-11-30T18:28:00.764Z,101540.97
2022-11-30T18:30:34.570Z,101540.94
2022-11-30T18:33:08.690Z,101547.97
2022-11-30T18:35:43.491Z,101550.63
2022-11-30T18:38:17.008Z,101541.81
2022-11-30T18:40:50.404Z,101540.94
2022-11-30T18:43:24.971Z,101542.69
2022-11-30T18:46:04.251Z,101547.09
2022-11-30T18:48:50.060Z,101543.59
2022-11-30T18:51:26.901Z,101545.34
2022-11-30T18:54:05.374Z,101546.25
2022-11-30T18:56:42.745Z,101541.84
2022-11-30T18:59:19.592Z,101549.75
2022-11-30T19:01:53.671Z,101542.72
2022-11-30T19:04:29.298Z,101540.94
2022-11-30T19:07:04.414Z,101544.50
2022-11-30T19:09:38.177Z,101550.63
2022-11-30T19:12:14.756Z,101551.50
2022-11-30T19:14:50.601Z,101549.81
2022-11-30T19:17:30.299Z,101542.75
2022-11-30T19:20:04.190Z,101550.69
2022-11-30T19:22:39.199Z,101550.75
2022-11-30T19:25:17.746Z,101547.19
2022-11-30T19:27:52.891Z,101543.66
2022-11-30T19:30:27.940Z,101552.47
2022-11-30T19:33:01.814Z,101541.91
2022-11-30T19:35:35.412Z,101548.97
2022-11-30T19:38:10.458Z,101552.47
2022-11-30T19:40:43.970Z,101554.25
2022-11-30T19:43:17.630Z,101557.78
2022-11-30T19:45:51.519Z,101553.41
2022-11-30T19:48:27.721Z,101558.69
2022-11-30T19:51:01.644Z,101558.72
2022-11-30T19:53:39.853Z,101564.88
2022-11-30T19:56:15.666Z,101572.78
2022-11-30T19:58:52.221Z,101570.16
2022-11-30T20:01:28.005Z,101572.81
2022-11-30T20:04:01.672Z,101567.53
2022-11-30T20:06:43.334Z,101567.53
2022-11-30T20:09:18.563Z,101571.91
2022-11-30T20:11:52.333Z,101569.28
2022-11-30T20:14:28.390Z,101576.34
2022-11-30T20:17:02.131Z,101577.22
2022-11-30T20:19:35.846Z,101577.22
2022-11-30T20:22:09.756Z,101573.72
2022-11-30T20:24:47.606Z,101579.88
2022-11-30T20:27:24.140Z,101578.13
2022-11-30T20:29:58.011Z,101577.22
2022-11-30T20:32:31.848Z,101570.19
2022-11-30T20:35:07.865Z,101573.72
2022-11-30T20:37:44.980Z,101575.47
2022-11-30T20:40:20.424Z,101573.72
2022-11-30T20:42:58.168Z,101567.59
2022-11-30T20:45:32.745Z,101577.25
2022-11-30T20:48:06.674Z,101580.78
2022-11-30T20:50:40.051Z,101578.19
2022-11-30T20:53:16.426Z,101574.63
2022-11-30T20:55:56.609Z,101587.84
2022-11-30T20:58:35.551Z,101577.28
2022-11-30T21:01:14.258Z,101588.72
2022-11-30T21:03:48.544Z,101575.50
2022-11-30T21:06:31.383Z,101584.34
2022-11-30T21:09:05.739Z,101586.97
2022-11-30T21:11:41.448Z,101583.44
2022-11-30T21:14:15.749Z,101585.22
2022-11-30T21:16:51.967Z,101583.44
2022-11-30T21:19:29.614Z,101580.78
2022-11-30T21:22:04.721Z,101582.56
2022-11-30T21:24:38.837Z,101577.28
2022-11-30T21:27:13.691Z,101574.69
2022-11-30T21:29:47.279Z,101579.94
2022-11-30T21:32:21.078Z,101582.56
2022-11-30T21:34:54.632Z,101579.97
2022-11-30T21:37:31.216Z,101581.72
2022-11-30T21:40:05.452Z,101576.41
2022-11-30T21:42:40.328Z,101581.69
2022-11-30T21:45:13.916Z,101579.06
2022-11-30T21:47:47.540Z,101575.50
2022-11-30T21:50:26.901Z,101574.63
2022-11-30T21:53:00.894Z,101572.88
2022-11-30T21:55:36.720Z,101571.13
2022-11-30T21:58:11.754Z,101572.00
2022-11-30T22:00:45.313Z,101572.88
2022-11-30T22:03:19.747Z,101578.16
2022-11-30T22:06:04.414Z,101572.91
2022-11-30T22:08:38.651Z,101568.50
2022-11-30T22:11:14.118Z,101563.25
2022-11-30T22:13:51.562Z,101571.16
2022-11-30T22:16:32.402Z,101569.41
2022-11-30T22:19:09.275Z,101569.41
2022-11-30T22:21:48.250Z,101572.09
2022-11-30T22:24:23.603Z,101568.50
2022-11-30T22:26:57.154Z,101569.41
2022-11-30T22:29:32.260Z,101567.66
2022-11-30T22:32:06.267Z,101566.78
2022-11-30T22:34:40.123Z,101566.78
2022-11-30T22:37:13.961Z,101564.13
2022-11-30T22:39:50.654Z,101569.41
2022-11-30T22:42:24.252Z,101570.25
2022-11-30T22:44:59.064Z,101571.19
2022-11-30T22:47:35.027Z,101572.03
2022-11-30T22:50:09.254Z,101572.91
2022-11-30T22:53:02.375Z,101572.91
2022-11-30T22:55:36.233Z,101572.03
2022-11-30T22:58:09.831Z,101568.53
2022-11-30T23:00:44.787Z,101567.63
2022-11-30T23:03:21.233Z,101559.69
2022-11-30T23:05:55.211Z,101561.47
2022-11-30T23:08:29.589Z,101561.47
2022-11-30T23:11:04.988Z,101566.75
2022-11-30T23:13:39.404Z,101566.75
2022-11-30T23:16:15.626Z,101572.88
2022-11-30T23:18:51.777Z,101569.38
2022-11-30T23:21:29.962Z,101566.72
2022-11-30T23:24:06.182Z,101557.03
2022-11-30T23:26:40.206Z,101562.34
2022-11-30T23:29:14.720Z,101562.38
2022-11-30T23:31:49.612Z,101557.97
2022-11-30T23:34:23.678Z,101553.53
2022-11-30T23:36:57.270Z,101545.59
2022-11-30T23:39:30.921Z,101544.72
2022-11-30T23:42:04.481Z,101554.41
2022-11-30T23:44:37.966Z,101551.75
2022-11-30T23:47:17.993Z,101549.13
2022-11-30T23:49:51.926Z,101551.75
2022-11-30T23:52:25.415Z,101552.66
2022-11-30T23:54:58.908Z,101546.47
2022-11-30T23:57:32.455Z,101542.97
